createdAt,value
2023-02-18T00:00:20.914Z,10.02
2023-02-18T00:02:47.314Z,9.98
2023-02-18T00:05:14.664Z,9.95
2023-02-18T00:07:41.511Z,10.01
2023-02-18T00:10:11.593Z,10.01
2023-02-18T00:12:38.585Z,9.99
2023-02-18T00:15:05.303Z,9.99
2023-02-18T00:17:31.602Z,9.99
2023-02-18T00:19:58.133Z,10.05
2023-02-18T00:22:25.202Z,10.03
2023-02-18T00:24:51.687Z,10.03
2023-02-18T00:27:18.258Z,10.03
2023-02-18T00:29:44.596Z,10.02
2023-02-18T00:32:11.229Z,10.02
2023-02-18T00:34:37.644Z,10.02
2023-02-18T00:37:04.704Z,10.03
2023-02-18T00:39:31.845Z,10.04
2023-02-18T00:41:58.273Z,9.98
2023-02-18T00:44:25.728Z,10.02
2023-02-18T00:46:53.217Z,10.03
2023-02-18T00:49:19.527Z,10.01
2023-02-18T00:51:45.981Z,10.05
2023-02-18T00:54:12.456Z,10.00
2023-02-18T00:56:38.756Z,10.02
2023-02-18T00:59:05.079Z,10.07
2023-02-18T01:01:31.503Z,10.10
2023-02-18T01:03:57.901Z,10.06
2023-02-18T01:06:24.219Z,10.08
2023-02-18T01:08:50.696Z,10.05
2023-02-18T01:11:17.199Z,10.03
2023-02-18T01:13:43.546Z,9.99
2023-02-18T01:16:10.897Z,9.97
2023-02-18T01:18:38.845Z,10.03
2023-02-18T01:21:08.359Z,10.03
2023-02-18T01:23:38.278Z,10.00
2023-02-18T01:26:05.742Z,9.98
2023-02-18T01:28:32.338Z,9.96
2023-02-18T01:31:04.401Z,9.99
2023-02-18T01:33:31.558Z,10.00
2023-02-18T01:36:00.759Z,9.97
2023-02-18T01:38:27.079Z,9.94
2023-02-18T01:40:54.108Z,9.92
2023-02-18T01:43:22.347Z,9.84
2023-02-18T01:45:58.548Z,9.92
2023-02-18T01:48:39.800Z,9.88
2023-02-18T01:51:32.664Z,9.88
2023-02-18T01:54:04.909Z,9.93
2023-02-18T01:56:40.097Z,9.93
2023-02-18T01:59:12.127Z,9.97
2023-02-18T02:01:41.746Z,9.90
2023-02-18T02:04:08.219Z,9.95
2023-02-18T02:06:34.601Z,9.96
2023-02-18T02:09:03.773Z,9.96
2023-02-18T02:11:57.790Z,9.91
2023-02-18T02:14:45.690Z,9.94
2023-02-18T02:17:44.403Z,9.97
2023-02-18T02:20:44.423Z,9.91
2023-02-18T02:23:41.950Z,9.89
2023-02-18T02:26:45.849Z,9.89
2023-02-18T02:29:45.631Z,9.86
2023-02-18T02:32:54.239Z,9.81
2023-02-18T02:35:26.307Z,9.80
2023-02-18T02:38:01.751Z,9.85
2023-02-18T02:40:54.747Z,9.81
2023-02-18T02:43:34.752Z,9.77
2023-02-18T02:46:19.448Z,9.85
2023-02-18T02:48:59.610Z,9.85
2023-02-18T02:51:42.047Z,9.84
2023-02-18T02:54:20.917Z,9.86
2023-02-18T02:56:48.102Z,9.84
2023-02-18T02:59:27.877Z,9.82
2023-02-18T03:02:16.920Z,9.82
2023-02-18T03:04:49.069Z,9.84
2023-02-18T03:07:52.762Z,9.84
2023-02-18T03:10:39.405Z,9.82
2023-02-18T03:13:50.192Z,9.82
2023-02-18T03:16:26.034Z,9.84
2023-02-18T03:19:05.093Z,9.81
2023-02-18T03:21:36.692Z,9.79
2023-02-18T03:24:08.449Z,9.84
2023-02-18T03:26:39.954Z,9.76
2023-02-18T03:29:08.634Z,9.78
2023-02-18T03:31:38.848Z,9.78
2023-02-18T03:34:12.080Z,9.77
2023-02-18T03:36:39.890Z,9.77
2023-02-18T03:39:14.924Z,9.73
2023-02-18T03:41:41.808Z,9.69
2023-02-18T03:44:10.437Z,9.66
2023-02-18T03:46:40.252Z,9.78
2023-02-18T03:49:06.840Z,9.78
2023-02-18T03:51:33.369Z,9.75
2023-02-18T03:53:59.729Z,9.64
2023-02-18T03:56:26.170Z,9.60
2023-02-18T03:58:52.551Z,9.73
2023-02-18T04:01:18.933Z,9.72
2023-02-18T04:03:45.294Z,9.65
2023-02-18T04:06:11.709Z,9.64
2023-02-18T04:08:38.049Z,9.67
2023-02-18T04:11:05.356Z,9.64
2023-02-18T04:13:32.230Z,9.75
2023-02-18T04:15:58.554Z,9.67
2023-02-18T04:18:24.899Z,9.69
2023-02-18T04:20:51.629Z,9.69
2023-02-18T04:23:17.935Z,9.70
2023-02-18T04:25:44.297Z,9.62
2023-02-18T04:28:13.247Z,9.69
2023-02-18T04:30:39.991Z,9.76
2023-02-18T04:33:06.440Z,9.63
2023-02-18T04:35:32.728Z,9.65
2023-02-18T04:37:59.053Z,9.72
2023-02-18T04:40:26.588Z,9.78
2023-02-18T04:42:52.885Z,9.71
2023-02-18T04:45:19.197Z,9.68
2023-02-18T04:47:45.574Z,9.73
2023-02-18T04:50:11.967Z,9.69
2023-02-18T04:52:38.341Z,9.72
2023-02-18T04:55:04.956Z,9.77
2023-02-18T04:57:31.260Z,9.74
2023-02-18T04:59:57.601Z,9.79
2023-02-18T05:02:23.993Z,9.72
2023-02-18T05:04:50.352Z,9.72
2023-02-18T05:07:16.832Z,9.72
2023-02-18T05:09:43.141Z,9.74
2023-02-18T05:12:09.449Z,9.69
2023-02-18T05:14:35.758Z,9.70
2023-02-18T05:17:02.104Z,9.76
2023-02-18T05:19:28.651Z,9.75
2023-02-18T05:21:54.967Z,9.79
2023-02-18T05:24:21.267Z,9.70
2023-02-18T05:26:47.608Z,9.75
2023-02-18T05:29:13.907Z,9.73
2023-02-18T05:31:40.464Z,9.73
2023-02-18T05:34:06.906Z,9.71
2023-02-18T05:36:33.260Z,9.70
2023-02-18T05:38:59.595Z,9.65
2023-02-18T05:41:25.927Z,9.73
2023-02-18T05:44:10.959Z,9.69
2023-02-18T05:46:37.447Z,9.69
2023-02-18T05:49:03.841Z,9.74
2023-02-18T05:51:30.202Z,9.75
2023-02-18T05:53:56.637Z,9.74
2023-02-18T05:56:23.038Z,9.69
2023-02-18T05:58:49.413Z,9.75
2023-02-18T06:01:15.939Z,9.77
2023-02-18T06:03:42.261Z,9.66
2023-02-18T06:06:08.970Z,9.74
2023-02-18T06:08:35.550Z,9.76
2023-02-18T06:11:02.165Z,9.76
2023-02-18T06:13:28.566Z,9.72
2023-02-18T06:15:55.064Z,9.74
2023-02-18T06:18:22.002Z,9.73
2023-02-18T06:20:49.331Z,9.73
2023-02-18T06:23:16.146Z,9.67
2023-02-18T06:25:42.821Z,9.71
2023-02-18T06:28:09.388Z,9.66
2023-02-18T06:30:35.818Z,9.69
2023-02-18T06:33:04.460Z,9.71
2023-02-18T06:35:30.891Z,9.72
2023-02-18T06:37:57.179Z,9.73
2023-02-18T06:40:23.478Z,9.63
2023-02-18T06:42:49.798Z,9.63
2023-02-18T06:45:16.158Z,9.68
2023-02-18T06:47:42.620Z,9.60
2023-02-18T06:50:09.261Z,9.65
2023-02-18T06:52:37.859Z,9.56
2023-02-18T06:55:09.296Z,9.53
2023-02-18T06:57:35.760Z,9.55
2023-02-18T07:00:02.070Z,9.55
2023-02-18T07:02:28.434Z,9.63
2023-02-18T07:04:54.908Z,9.59
2023-02-18T07:07:21.317Z,9.49
2023-02-18T07:09:47.693Z,9.49
2023-02-18T07:12:14.048Z,9.55
2023-02-18T07:14:40.412Z,9.51
2023-02-18T07:17:06.710Z,9.51
2023-02-18T07:19:32.997Z,9.56
2023-02-18T07:22:00.189Z,9.58
2023-02-18T07:24:26.507Z,9.67
2023-02-18T07:26:52.872Z,9.70
2023-02-18T07:29:19.189Z,9.64
2023-02-18T07:31:45.590Z,9.70
2023-02-18T07:34:11.948Z,9.60
2023-02-18T07:36:38.396Z,9.69
2023-02-18T07:39:04.952Z,9.71
2023-02-18T07:41:31.418Z,9.68
2023-02-18T07:43:57.732Z,9.69
2023-02-18T07:46:24.152Z,9.67
2023-02-18T07:48:50.452Z,9.66
2023-02-18T07:51:16.832Z,9.75
2023-02-18T07:53:43.156Z,9.71
2023-02-18T07:56:09.932Z,9.75
2023-02-18T07:58:38.404Z,9.71
2023-02-18T08:01:14.469Z,9.80
2023-02-18T08:03:41.555Z,9.74
2023-02-18T08:06:08.697Z,9.85
2023-02-18T08:08:37.121Z,9.68
2023-02-18T08:11:13.439Z,9.72
2023-02-18T08:13:46.965Z,9.81
2023-02-18T08:16:13.721Z,9.85
2023-02-18T08:18:40.044Z,9.80
2023-02-18T08:21:06.433Z,9.74
2023-02-18T08:23:32.937Z,9.80
2023-02-18T08:25:59.365Z,9.81
2023-02-18T08:28:26.696Z,9.82
2023-02-18T08:30:54.867Z,9.83
2023-02-18T08:33:22.494Z,9.89
2023-02-18T08:35:50.252Z,9.85
2023-02-18T08:38:16.916Z,9.85
2023-02-18T08:40:43.587Z,9.88
2023-02-18T08:43:10.381Z,9.91
2023-02-18T08:45:40.727Z,9.99
2023-02-18T08:48:18.912Z,9.93
2023-02-18T08:50:47.277Z,9.91
2023-02-18T08:53:13.631Z,9.89
2023-02-18T08:55:41.422Z,9.90
2023-02-18T08:58:08.137Z,9.88
2023-02-18T09:00:35.418Z,9.92
2023-02-18T09:03:01.787Z,9.94
2023-02-18T09:05:29.444Z,9.93
2023-02-18T09:07:55.943Z,9.96
2023-02-18T09:10:22.581Z,9.88
2023-02-18T09:12:48.987Z,9.90
2023-02-18T09:15:15.308Z,9.86
2023-02-18T09:17:41.645Z,10.00
2023-02-18T09:20:08.588Z,10.01
2023-02-18T09:22:34.984Z,9.97
2023-02-18T09:25:01.463Z,9.93
2023-02-18T09:27:27.857Z,9.92
2023-02-18T09:29:54.221Z,9.90
2023-02-18T09:32:33.564Z,9.86
2023-02-18T09:35:00.339Z,9.86
2023-02-18T09:37:28.750Z,9.81
2023-02-18T09:39:55.177Z,9.93
2023-02-18T09:42:28.017Z,9.92
2023-02-18T09:44:59.362Z,9.90
2023-02-18T09:47:34.888Z,9.85
2023-02-18T09:50:11.357Z,9.86
2023-02-18T09:52:39.161Z,9.84
2023-02-18T09:55:27.318Z,9.87
2023-02-18T09:58:15.145Z,9.90
2023-02-18T10:00:44.507Z,9.95
2023-02-18T10:03:17.941Z,9.91
2023-02-18T10:06:05.410Z,10.01
2023-02-18T10:08:50.516Z,9.97
2023-02-18T10:11:41.871Z,9.98
2023-02-18T10:14:12.140Z,10.01
2023-02-18T10:16:38.840Z,9.92
2023-02-18T10:19:19.944Z,9.96
2023-02-18T10:21:47.962Z,9.95
2023-02-18T10:24:32.134Z,9.98
2023-02-18T10:26:59.272Z,9.95
2023-02-18T10:29:26.661Z,10.10
2023-02-18T10:31:59.172Z,10.23
2023-02-18T10:34:41.469Z,10.54
2023-02-18T10:37:32.743Z,10.79
2023-02-18T10:40:25.576Z,10.79
2023-02-18T10:43:03.663Z,10.79
2023-02-18T10:45:56.221Z,10.77
2023-02-18T10:48:44.066Z,10.69
2023-02-18T10:51:23.477Z,10.56
2023-02-18T10:53:52.880Z,10.45
2023-02-18T10:56:40.620Z,10.40
2023-02-18T10:59:25.710Z,10.35
2023-02-18T11:01:59.237Z,10.45
2023-02-18T11:04:35.569Z,10.39
2023-02-18T11:07:12.286Z,10.36
2023-02-18T11:10:19.446Z,10.39
2023-02-18T11:12:49.967Z,10.34
2023-02-18T11:15:23.480Z,10.28
2023-02-18T11:17:52.515Z,10.27
2023-02-18T11:20:28.271Z,10.26
2023-02-18T11:23:13.230Z,10.16
2023-02-18T11:25:41.957Z,10.22
2023-02-18T11:28:17.380Z,10.18
2023-02-18T11:30:46.918Z,10.15
2023-02-18T11:33:20.803Z,10.20
2023-02-18T11:35:58.461Z,10.23
2023-02-18T11:38:46.283Z,10.23
2023-02-18T11:41:19.989Z,10.24
2023-02-18T11:43:49.119Z,10.33
2023-02-18T11:46:27.076Z,10.35
2023-02-18T11:48:54.231Z,10.28
2023-02-18T11:51:27.719Z,10.35
2023-02-18T11:54:05.757Z,10.61
2023-02-18T11:56:35.257Z,10.62
2023-02-18T11:59:03.892Z,10.67
2023-02-18T12:01:51.016Z,10.79
2023-02-18T12:04:19.816Z,11.09
2023-02-18T12:06:53.301Z,11.08
2023-02-18T12:09:26.340Z,11.10
2023-02-18T12:11:58.587Z,11.07
2023-02-18T12:14:26.469Z,11.05
2023-02-18T12:17:26.444Z,11.00
2023-02-18T12:20:03.146Z,10.90
2023-02-18T12:22:38.162Z,10.81
2023-02-18T12:25:37.370Z,10.87
2023-02-18T12:28:24.986Z,10.69
2023-02-18T12:31:17.530Z,10.65
2023-02-18T12:33:59.057Z,10.70
2023-02-18T12:36:50.497Z,10.66
2023-02-18T12:39:22.784Z,10.72
2023-02-18T12:42:08.737Z,10.69
2023-02-18T12:45:08.903Z,10.72
2023-02-18T12:47:47.755Z,10.59
2023-02-18T12:50:34.029Z,10.64
2023-02-18T12:53:12.934Z,10.62
2023-02-18T12:56:23.434Z,10.58
2023-02-18T12:59:27.112Z,10.56
2023-02-18T13:02:01.690Z,10.58
2023-02-18T13:04:48.261Z,10.64
2023-02-18T13:07:35.266Z,10.73
2023-02-18T13:10:28.029Z,10.68
2023-02-18T13:13:08.577Z,10.74
2023-02-18T13:15:55.612Z,10.77
2023-02-18T13:18:28.687Z,10.75
2023-02-18T13:20:59.107Z,10.59
2023-02-18T13:23:34.143Z,10.62
2023-02-18T13:26:04.866Z,10.68
2023-02-18T13:28:40.619Z,10.64
2023-02-18T13:31:32.289Z,10.47
2023-02-18T13:34:03.704Z,10.46
2023-02-18T13:36:36.988Z,10.39
2023-02-18T13:39:05.826Z,10.39
2023-02-18T13:41:38.906Z,10.30
2023-02-18T13:44:20.589Z,10.26
2023-02-18T13:46:56.420Z,10.23
2023-02-18T13:49:41.172Z,10.26
2023-02-18T13:52:20.026Z,10.26
2023-02-18T13:54:47.752Z,10.28
2023-02-18T13:57:19.208Z,10.27
2023-02-18T13:59:49.539Z,10.36
2023-02-18T14:02:32.497Z,10.33
2023-02-18T14:05:11.232Z,10.37
2023-02-18T14:07:46.616Z,10.35
2023-02-18T14:10:12.884Z,10.41
2023-02-18T14:13:03.993Z,10.36
2023-02-18T14:15:30.293Z,10.36
2023-02-18T14:18:02.604Z,10.28
2023-02-18T14:20:37.948Z,10.26
2023-02-18T14:23:22.715Z,10.16
2023-02-18T14:25:57.493Z,10.15
2023-02-18T14:28:47.106Z,10.13
2023-02-18T14:31:13.908Z,10.20
2023-02-18T14:33:47.517Z,10.07
2023-02-18T14:36:55.550Z,10.13
2023-02-18T14:39:43.501Z,10.18
2023-02-18T14:42:42.476Z,10.07
2023-02-18T14:45:31.403Z,9.99
2023-02-18T14:48:38.755Z,10.07
2023-02-18T14:51:05.642Z,10.02
2023-02-18T14:53:39.860Z,10.08
2023-02-18T14:56:11.259Z,10.11
2023-02-18T14:58:41.077Z,10.05
2023-02-18T15:01:18.445Z,10.05
2023-02-18T15:03:44.786Z,9.95
2023-02-18T15:06:32.080Z,10.02
2023-02-18T15:08:59.950Z,10.07
2023-02-18T15:11:36.868Z,9.99
2023-02-18T15:14:10.784Z,9.93
2023-02-18T15:16:38.306Z,9.94
2023-02-18T15:19:07.817Z,10.01
2023-02-18T15:21:41.971Z,10.05
2023-02-18T15:24:31.443Z,10.07
2023-02-18T15:27:04.010Z,9.92
2023-02-18T15:29:35.018Z,9.89
2023-02-18T15:32:14.987Z,9.97
2023-02-18T15:34:43.976Z,9.95
2023-02-18T15:37:14.891Z,10.03
2023-02-18T15:39:42.582Z,10.04
2023-02-18T15:42:24.546Z,9.91
2023-02-18T15:44:55.916Z,9.94
2023-02-18T15:47:23.517Z,9.88
2023-02-18T15:49:56.764Z,9.93
2023-02-18T15:52:26.400Z,9.84
2023-02-18T15:54:53.308Z,9.91
2023-02-18T15:57:23.710Z,9.91
2023-02-18T16:00:34.774Z,9.93
2023-02-18T16:03:20.092Z,9.98
2023-02-18T16:05:47.274Z,9.99
2023-02-18T16:08:16.716Z,9.84
2023-02-18T16:10:53.538Z,9.81
2023-02-18T16:13:20.190Z,9.77
2023-02-18T16:15:49.368Z,9.84
2023-02-18T16:18:42.210Z,9.85
2023-02-18T16:21:17.402Z,9.84
2023-02-18T16:23:54.264Z,9.80
2023-02-18T16:26:28.217Z,9.86
2023-02-18T16:28:55.392Z,9.79
2023-02-18T16:31:21.961Z,9.77
2023-02-18T16:33:49.479Z,9.81
2023-02-18T16:36:16.832Z,9.80
2023-02-18T16:38:45.077Z,9.72
2023-02-18T16:41:14.406Z,9.70
2023-02-18T16:43:41.651Z,9.65
2023-02-18T16:46:14.034Z,9.71
2023-02-18T16:48:43.013Z,9.63
2023-02-18T16:51:30.690Z,9.67
2023-02-18T16:53:57.213Z,9.63
2023-02-18T16:56:32.280Z,9.71
2023-02-18T16:58:59.279Z,9.59
2023-02-18T17:01:28.898Z,9.65
2023-02-18T17:03:56.509Z,9.72
2023-02-18T17:06:23.007Z,9.70
2023-02-18T17:08:49.950Z,9.67
2023-02-18T17:11:20.682Z,9.73
2023-02-18T17:13:48.807Z,9.72
2023-02-18T17:16:16.206Z,9.67
2023-02-18T17:18:43.712Z,9.67
2023-02-18T17:21:14.946Z,9.73
2023-02-18T17:23:42.252Z,9.61
2023-02-18T17:26:34.948Z,9.74
2023-02-18T17:29:01.514Z,9.77
2023-02-18T17:31:30.898Z,9.63
2023-02-18T17:34:01.083Z,9.59
2023-02-18T17:36:27.620Z,9.70
2023-02-18T17:38:54.038Z,9.66
2023-02-18T17:41:20.508Z,9.65
2023-02-18T17:43:46.842Z,9.61
2023-02-18T17:46:15.950Z,9.61
2023-02-18T17:48:43.136Z,9.50
2023-02-18T17:51:39.190Z,9.57
2023-02-18T17:54:18.643Z,9.61
2023-02-18T17:56:45.388Z,9.63
2023-02-18T17:59:11.755Z,9.69
2023-02-18T18:01:38.766Z,9.68
2023-02-18T18:04:12.816Z,9.68
2023-02-18T18:06:39.248Z,9.57
2023-02-18T18:09:05.578Z,9.65
2023-02-18T18:11:32.742Z,9.69
2023-02-18T18:13:59.589Z,9.60
2023-02-18T18:16:26.604Z,9.61
2023-02-18T18:18:52.993Z,9.53
2023-02-18T18:21:22.797Z,9.57
2023-02-18T18:23:49.950Z,9.56
2023-02-18T18:26:16.317Z,9.58
2023-02-18T18:28:42.828Z,9.47
2023-02-18T18:31:14.843Z,9.52
2023-02-18T18:33:41.726Z,9.49
2023-02-18T18:36:08.439Z,9.51
2023-02-18T18:38:35.074Z,9.51
2023-02-18T18:41:01.416Z,9.54
2023-02-18T18:43:33.271Z,9.41
2023-02-18T18:46:00.007Z,9.46
2023-02-18T18:48:26.761Z,9.51
2023-02-18T18:50:53.594Z,9.48
2023-02-18T18:53:24.481Z,9.44
2023-02-18T18:55:56.118Z,9.50
2023-02-18T18:58:24.432Z,9.41
2023-02-18T19:00:57.064Z,9.47
2023-02-18T19:03:24.850Z,9.45
2023-02-18T19:05:52.141Z,9.42
2023-02-18T19:08:21.859Z,9.43
2023-02-18T19:10:51.365Z,9.44
2023-02-18T19:13:21.453Z,9.45
2023-02-18T19:15:48.842Z,9.44
2023-02-18T19:18:17.375Z,9.51
2023-02-18T19:20:45.239Z,9.44
2023-02-18T19:23:11.810Z,9.40
2023-02-18T19:25:39.259Z,9.34
2023-02-18T19:28:05.978Z,9.39
2023-02-18T19:30:35.073Z,9.47
2023-02-18T19:33:03.395Z,9.40
2023-02-18T19:35:30.671Z,9.40
2023-02-18T19:37:57.620Z,9.38
2023-02-18T19:40:26.628Z,9.35
2023-02-18T19:42:53.647Z,9.38
2023-02-18T19:45:20.841Z,9.35
2023-02-18T19:47:47.564Z,9.37
2023-02-18T19:50:15.671Z,9.34
2023-02-18T19:52:42.148Z,9.33
2023-02-18T19:55:09.834Z,9.28
2023-02-18T19:57:36.610Z,9.35
2023-02-18T20:00:08.277Z,9.20
2023-02-18T20:02:39.453Z,9.14
2023-02-18T20:05:07.459Z,9.16
2023-02-18T20:07:36.059Z,9.22
2023-02-18T20:10:03.971Z,9.31
2023-02-18T20:12:30.406Z,9.23
2023-02-18T20:14:56.765Z,9.26
2023-02-18T20:17:23.134Z,9.28
2023-02-18T20:19:49.448Z,9.31
2023-02-18T20:22:15.845Z,9.32
2023-02-18T20:24:42.362Z,9.28
2023-02-18T20:27:09.939Z,9.23
2023-02-18T20:29:36.836Z,9.19
2023-02-18T20:32:05.211Z,9.27
2023-02-18T20:34:32.859Z,9.30
2023-02-18T20:37:00.092Z,9.36
2023-02-18T20:39:27.178Z,9.35
2023-02-18T20:41:53.709Z,9.40
2023-02-18T20:44:21.142Z,9.38
2023-02-18T20:46:50.740Z,9.35
2023-02-18T20:49:18.919Z,9.42
2023-02-18T20:51:45.800Z,9.41
2023-02-18T20:54:15.663Z,9.41
2023-02-18T20:56:43.681Z,9.38
2023-02-18T20:59:14.224Z,9.33
2023-02-18T21:01:41.788Z,9.31
2023-02-18T21:04:10.629Z,9.38
2023-02-18T21:06:36.957Z,9.42
2023-02-18T21:09:03.826Z,9.44
2023-02-18T21:11:30.133Z,9.34
2023-02-18T21:13:57.677Z,9.39
2023-02-18T21:16:26.583Z,9.27
2023-02-18T21:18:53.304Z,9.30
2023-02-18T21:21:20.233Z,9.33
2023-02-18T21:23:46.779Z,9.35
2023-02-18T21:26:18.945Z,9.35
2023-02-18T21:28:50.142Z,9.36
2023-02-18T21:31:16.535Z,9.36
2023-02-18T21:33:42.950Z,9.45
2023-02-18T21:36:09.411Z,9.42
2023-02-18T21:38:35.696Z,9.28
2023-02-18T21:41:04.431Z,9.28
2023-02-18T21:43:30.739Z,9.33
2023-02-18T21:46:06.160Z,9.32
2023-02-18T21:48:51.256Z,9.29
2023-02-18T21:51:37.523Z,9.43
2023-02-18T21:54:03.886Z,9.41
2023-02-18T21:56:30.194Z,9.35
2023-02-18T21:58:56.506Z,9.42
2023-02-18T22:01:22.949Z,9.37
2023-02-18T22:03:49.280Z,9.37
2023-02-18T22:06:15.587Z,9.31
2023-02-18T22:08:41.959Z,9.39
2023-02-18T22:11:08.643Z,9.39
2023-02-18T22:13:35.255Z,9.38
2023-02-18T22:16:01.596Z,9.38
2023-02-18T22:18:31.482Z,9.38
2023-02-18T22:20:58.440Z,9.48
2023-02-18T22:23:25.093Z,9.34
2023-02-18T22:25:52.202Z,9.36
2023-02-18T22:28:19.052Z,9.46
2023-02-18T22:30:45.365Z,9.33
2023-02-18T22:33:11.695Z,9.37
2023-02-18T22:35:37.993Z,9.41
2023-02-18T22:38:04.298Z,9.40
2023-02-18T22:40:30.637Z,9.44
2023-02-18T22:42:56.929Z,9.41
2023-02-18T22:45:23.293Z,9.40
2023-02-18T22:47:49.597Z,9.35
2023-02-18T22:50:16.733Z,9.38
2023-02-18T22:52:43.117Z,9.43
2023-02-18T22:55:09.396Z,9.40
2023-02-18T22:57:35.771Z,9.40
2023-02-18T23:00:02.068Z,9.38
2023-02-18T23:02:28.392Z,9.31
2023-02-18T23:04:54.674Z,9.34
2023-02-18T23:07:24.301Z,9.41
2023-02-18T23:09:50.592Z,9.39
2023-02-18T23:12:17.819Z,9.26
2023-02-18T23:14:44.150Z,9.30
2023-02-18T23:17:13.403Z,9.31
2023-02-18T23:19:42.349Z,9.40
2023-02-18T23:22:10.928Z,9.37
2023-02-18T23:24:39.994Z,9.29
2023-02-18T23:27:08.603Z,9.32
2023-02-18T23:29:34.930Z,9.35
2023-02-18T23:32:02.032Z,9.37
2023-02-18T23:34:28.808Z,9.32
2023-02-18T23:36:55.753Z,9.31
2023-02-18T23:39:22.795Z,9.32
2023-02-18T23:41:50.903Z,9.34
2023-02-18T23:44:22.067Z,9.39
2023-02-18T23:46:48.364Z,9.36
2023-02-18T23:49:16.067Z,9.28
2023-02-18T23:51:43.186Z,9.40
2023-02-18T23:54:10.334Z,9.37
2023-02-18T23:56:36.827Z,9.32
2023-02-18T23:59:04.412Z,9.39
